Terminal Aerodrome Forecast
Issued by NWS

Home | Current Version | Previous Version | Text Only | Print | Product List | Glossary On
Versions: 1 2 3 4 5 6 7 8 9 10 11 12 13 14 15 16 17 18 19 20 21 22 23 24 25 26 27 28 29 30
000
FTUS43 KLOT 290200 AAA
TAFDPA
TAF AMD
KDPA 290258Z 2903/2924 13007KT P6SM SCT070 BKN150
     FM291100 15008KT P6SM VCSH BKN050 OVC080
     FM291500 19008KT P6SM SCT050 BKN100
     FM291700 19013G20KT P6SM SCT060 BKN150 PROB30 2918/2922 5SM
      TSRA BR BKN050CB=

USA.gov is the U.S. government's official web portal to all federal, state and local government web resources and services.